Time;durP1;ratioP1;P1;durP2;ratioP2;P2;SDS_P1;SDS_P2;PMS_P1;PMS_P2;Temp;Humidity;BMP_temperature;BMP_pressure;BME280_temperature;BME280_humidity;BME280_pressure;Samples;Min_cycle;Max_cycle;Signal;HPM_P1;HPM_P2
2022/07/10 00:00:37;;;;;;;4.20;0.77;;;15.90;99.90;;;;;;5035254;28;20029;-27
2022/07/10 00:03:04;;;;;;;6.28;0.85;;;15.80;99.90;;;;;;5034556;28;20477;-32
2022/07/10 00:05:31;;;;;;;1.73;0.80;;;15.80;99.90;;;;;;5033470;28;20078;-30
2022/07/10 00:07:57;;;;;;;1.75;0.73;;;15.80;99.90;;;;;;5034597;28;20470;-33
2022/07/10 00:10:23;;;;;;;6.47;1.00;;;15.90;99.90;;;;;;5017160;28;20041;-33
2022/07/10 00:12:50;;;;;;;2.45;0.70;;;15.90;99.90;;;;;;5034283;28;20116;-38
2022/07/10 00:15:17;;;;;;;2.83;0.50;;;15.80;99.90;;;;;;5035809;28;20025;-62
2022/07/10 00:17:43;;;;;;;7.15;1.20;;;15.80;99.90;;;;;;5033979;28;20508;-37
2022/07/10 00:20:10;;;;;;;3.22;0.75;;;15.70;99.90;;;;;;5038968;28;20029;-38
2022/07/10 00:22:37;;;;;;;5.05;0.90;;;15.80;99.90;;;;;;5035277;28;20485;-64
2022/07/10 00:25:04;;;;;;;3.80;0.63;;;15.70;99.90;;;;;;5015864;28;20499;-37
2022/07/10 00:27:30;;;;;;;3.05;1.00;;;15.70;99.90;;;;;;5035857;28;20500;-37
2022/07/10 00:29:56;;;;;;;8.00;1.20;;;15.70;99.90;;;;;;5040420;28;20034;-36
2022/07/10 00:32:21;;;;;;;6.43;0.77;;;15.70;99.90;;;;;;5034970;28;20502;-36
2022/07/10 00:34:47;;;;;;;3.55;0.40;;;15.60;99.90;;;;;;5033910;28;20493;-36
2022/07/10 00:37:12;;;;;;;5.30;1.67;;;15.60;99.90;;;;;;5034690;28;20112;-36
2022/07/10 00:39:38;;;;;;;2.80;1.17;;;15.60;99.90;;;;;;5035097;28;20480;-37
2022/07/10 00:42:13;;;;;;;10.27;1.00;;;15.60;99.90;;;;;;5021803;28;20022;-36
2022/07/10 00:44:39;;;;;;;1.77;0.63;;;15.40;99.90;;;;;;5032886;28;20079;-37
2022/07/10 00:47:06;;;;;;;3.80;0.80;;;15.40;99.90;;;;;;5034480;28;20033;-37
2022/07/10 00:49:32;;;;;;;4.25;1.00;;;15.40;99.90;;;;;;5034720;28;20053;-37
2022/07/10 00:52:01;;;;;;;7.70;1.15;;;15.40;99.90;;;;;;5034876;28;20116;-38
2022/07/10 00:54:28;;;;;;;5.15;1.00;;;15.40;99.90;;;;;;5033186;28;20044;-37
2022/07/10 00:56:54;;;;;;;4.83;0.80;;;15.40;99.90;;;;;;5034008;28;20507;-37
2022/07/10 00:59:21;;;;;;;5.65;1.00;;;15.40;99.90;;;;;;5033843;28;20037;-36
2022/07/10 01:01:48;;;;;;;4.95;0.90;;;15.40;99.90;;;;;;5034277;28;20034;-47
2022/07/10 01:04:13;;;;;;;3.33;0.95;;;15.40;99.90;;;;;;5015694;28;20041;-37
2022/07/10 01:06:39;;;;;;;3.15;1.40;;;15.40;99.90;;;;;;5034603;28;20066;-37
2022/07/10 01:09:04;;;;;;;3.47;0.98;;;15.50;99.90;;;;;;5033127;28;20402;-38
2022/07/10 01:11:34;;;;;;;4.72;0.90;;;15.50;99.90;;;;;;5022893;28;20026;-37
2022/07/10 01:14:00;;;;;;;2.78;0.98;;;15.50;99.90;;;;;;5014710;28;20397;-38
2022/07/10 01:16:26;;;;;;;3.83;1.52;;;15.40;99.90;;;;;;5032812;28;20109;-37
2022/07/10 01:18:52;;;;;;;4.53;1.38;;;15.40;99.90;;;;;;5034111;28;20104;-32
2022/07/10 01:21:31;;;;;;;2.50;0.60;;;15.40;99.90;;;;;;5037905;28;20119;-37
2022/07/10 01:23:58;;;;;;;1.05;0.70;;;15.40;99.90;;;;;;5034274;28;20044;-38
2022/07/10 01:26:24;;;;;;;1.27;0.93;;;15.40;99.90;;;;;;5033845;28;20393;-39
2022/07/10 01:28:51;;;;;;;3.00;0.95;;;15.40;99.90;;;;;;5032589;28;21290;-37
2022/07/10 01:31:24;;;;;;;5.53;1.20;;;15.40;99.90;;;;;;5033499;28;20045;-35
2022/07/10 01:33:50;;;;;;;4.93;1.00;;;15.40;99.90;;;;;;5033785;28;20033;-37
2022/07/10 01:36:16;;;;;;;4.32;1.02;;;15.40;99.90;;;;;;5034045;28;20034;-37
2022/07/10 01:38:42;;;;;;;3.83;1.02;;;15.50;99.90;;;;;;5032928;28;20029;-35
2022/07/10 01:41:08;;;;;;;2.70;0.90;;;15.50;99.90;;;;;;5036427;28;20397;-37
2022/07/10 01:43:35;;;;;;;2.95;0.80;;;15.50;99.90;;;;;;5030771;28;20035;-38
2022/07/10 01:46:02;;;;;;;5.63;1.02;;;15.50;99.90;;;;;;5033573;28;20163;-36
2022/07/10 01:48:28;;;;;;;2.97;0.80;;;15.50;99.90;;;;;;5033436;28;20091;-37
2022/07/10 01:50:53;;;;;;;4.60;1.13;;;15.60;99.90;;;;;;5032733;28;20033;-46
2022/07/10 01:53:19;;;;;;;4.43;0.95;;;15.60;99.90;;;;;;5030588;28;20026;-38
2022/07/10 01:55:44;;;;;;;2.20;0.80;;;15.50;99.90;;;;;;5033245;28;20071;-37
2022/07/10 01:58:10;;;;;;;1.42;0.90;;;15.50;99.90;;;;;;5033683;28;20037;-38
2022/07/10 02:00:36;;;;;;;9.75;1.45;;;15.40;99.90;;;;;;5033012;28;20603;-38
2022/07/10 02:05:45;;;;;;;6.60;1.13;;;15.30;99.90;;;;;;5031370;28;20146;-38
2022/07/10 02:08:11;;;;;;;7.78;0.95;;;15.30;99.90;;;;;;5015140;28;20021;-36
2022/07/10 02:10:37;;;;;;;1.23;0.80;;;15.30;99.90;;;;;;5033720;28;20029;-37
2022/07/10 02:13:02;;;;;;;2.75;1.13;;;15.30;99.90;;;;;;5031947;28;20064;-37
2022/07/10 02:15:28;;;;;;;5.95;1.10;;;15.30;99.90;;;;;;5029400;28;20037;-36
2022/07/10 02:17:54;;;;;;;2.30;0.73;;;15.20;99.90;;;;;;5032879;28;20029;-36
2022/07/10 02:20:19;;;;;;;7.43;1.02;;;15.30;99.90;;;;;;5033330;28;20025;-36
2022/07/10 02:22:45;;;;;;;4.70;0.90;;;15.30;99.90;;;;;;5039518;28;20026;-38
2022/07/10 02:25:11;;;;;;;1.35;0.63;;;15.30;99.90;;;;;;5031031;28;20049;-35
2022/07/10 02:27:36;;;;;;;3.67;0.70;;;15.30;99.90;;;;;;5035291;28;20099;-38
2022/07/10 02:30:02;;;;;;;6.97;1.10;;;15.20;99.90;;;;;;5045558;28;20048;-37
2022/07/10 02:32:28;;;;;;;5.25;0.95;;;15.20;99.90;;;;;;5053290;28;20521;-37
2022/07/10 02:34:53;;;;;;;1.67;0.88;;;15.20;99.90;;;;;;5044759;28;20025;-37
2022/07/10 02:37:19;;;;;;;9.13;1.27;;;15.10;99.90;;;;;;5028560;28;20060;-36
2022/07/10 02:39:44;;;;;;;5.10;0.90;;;15.10;99.90;;;;;;5003437;28;20397;-37
2022/07/10 02:42:10;;;;;;;1.52;0.90;;;15.10;99.90;;;;;;5031701;28;20038;-37
2022/07/10 02:44:35;;;;;;;5.28;1.10;;;15.00;99.90;;;;;;5032218;28;20543;-37
2022/07/10 02:47:01;;;;;;;6.07;1.10;;;15.00;99.90;;;;;;5032883;28;20056;-42
2022/07/10 02:49:27;;;;;;;5.22;0.90;;;15.00;99.90;;;;;;5035182;28;20537;-37
2022/07/10 02:51:53;;;;;;;1.90;0.70;;;15.00;99.90;;;;;;5031873;28;20046;-37
2022/07/10 02:54:19;;;;;;;2.97;1.05;;;15.00;99.90;;;;;;5031382;28;20083;-35
2022/07/10 02:56:44;;;;;;;7.53;1.17;;;15.10;99.90;;;;;;5032372;28;20034;-38
2022/07/10 02:59:10;;;;;;;5.63;1.08;;;15.10;99.90;;;;;;5032937;28;20033;-37
2022/07/10 03:01:36;;;;;;;4.65;1.65;;;15.20;99.90;;;;;;5032574;28;20121;-37
2022/07/10 03:04:02;;;;;;;3.35;0.70;;;15.10;99.90;;;;;;5030498;28;20035;-36
2022/07/10 03:06:28;;;;;;;4.22;0.90;;;15.10;99.90;;;;;;5036582;28;20063;-37
2022/07/10 03:08:54;;;;;;;4.32;0.75;;;15.20;99.90;;;;;;5035441;28;20045;-36
2022/07/10 03:11:19;;;;;;;7.72;1.10;;;15.20;99.90;;;;;;5036748;28;20025;-36
2022/07/10 03:13:45;;;;;;;5.78;0.82;;;15.20;99.90;;;;;;5036674;28;20030;-38
2022/07/10 03:16:10;;;;;;;2.67;0.80;;;15.20;99.90;;;;;;5032649;28;20124;-28
2022/07/10 03:18:36;;;;;;;5.13;1.38;;;15.20;99.90;;;;;;5036064;28;20033;-32
2022/07/10 03:21:02;;;;;;;5.82;0.77;;;15.30;99.90;;;;;;5036241;28;20397;-33
2022/07/10 03:23:27;;;;;;;5.80;1.13;;;15.30;99.90;;;;;;5035030;28;20029;-33
2022/07/10 03:25:53;;;;;;;5.90;0.90;;;15.30;99.90;;;;;;5035628;28;20493;-32
2022/07/10 03:28:19;;;;;;;3.08;1.02;;;15.30;99.90;;;;;;5035425;28;20040;-28
2022/07/10 03:30:44;;;;;;;2.72;0.90;;;15.30;99.90;;;;;;5035560;28;20478;-30
2022/07/10 03:33:10;;;;;;;2.30;0.77;;;15.30;99.90;;;;;;5018825;28;20037;-31
2022/07/10 03:35:35;;;;;;;4.72;1.00;;;15.20;99.90;;;;;;5034972;28;20103;-33
2022/07/10 03:38:02;;;;;;;5.40;1.10;;;15.20;99.90;;;;;;5035457;28;20084;-33
2022/07/10 03:40:27;;;;;;;9.48;1.13;;;15.30;99.90;;;;;;5036397;28;20057;-30
2022/07/10 03:42:53;;;;;;;1.25;0.70;;;15.30;99.90;;;;;;5039009;28;20045;-33
2022/07/10 03:45:18;;;;;;;3.38;1.20;;;15.40;99.90;;;;;;5034406;28;20492;-31
2022/07/10 03:47:44;;;;;;;4.80;1.20;;;15.30;99.90;;;;;;5017492;28;20053;-32
2022/07/10 03:50:10;;;;;;;6.07;0.98;;;15.30;99.90;;;;;;5036035;28;20034;-33
2022/07/10 03:52:35;;;;;;;4.07;1.05;;;15.30;99.90;;;;;;5034592;28;20025;-32
2022/07/10 03:55:01;;;;;;;7.68;1.10;;;15.40;99.90;;;;;;5035118;28;20478;-28
2022/07/10 04:00:11;;;;;;;2.78;1.10;;;15.40;99.90;;;;;;5035859;28;20039;-30
2022/07/10 04:02:37;;;;;;;3.65;0.98;;;15.40;99.90;;;;;;5035152;28;20428;-33
2022/07/10 04:05:06;;;;;;;8.98;1.20;;;15.40;99.90;;;;;;5033988;28;20516;-27
2022/07/10 04:07:32;;;;;;;2.60;1.00;;;15.40;99.90;;;;;;5035964;28;20021;-33
2022/07/10 04:09:57;;;;;;;4.57;1.42;;;15.50;99.90;;;;;;5034832;28;20033;-33
2022/07/10 04:12:23;;;;;;;2.95;0.75;;;15.50;99.90;;;;;;5035629;28;20048;-27
2022/07/10 04:14:51;;;;;;;2.80;0.98;;;15.50;99.90;;;;;;5033627;28;20040;-36
2022/07/10 04:17:17;;;;;;;4.05;0.93;;;15.50;99.90;;;;;;5034052;28;20025;-37
2022/07/10 04:19:43;;;;;;;5.55;1.83;;;15.60;99.90;;;;;;5035550;28;20509;-55
2022/07/10 04:22:09;;;;;;;10.18;2.08;;;15.60;99.90;;;;;;5035464;28;20048;-37
2022/07/10 04:24:35;;;;;;;4.70;1.02;;;15.50;99.90;;;;;;5034285;28;20437;-36
2022/07/10 04:27:01;;;;;;;2.97;0.95;;;15.50;99.90;;;;;;5033344;28;20021;-32
2022/07/10 04:29:26;;;;;;;4.50;1.23;;;15.60;99.90;;;;;;5034286;28;20029;-29
2022/07/10 04:31:52;;;;;;;2.03;0.90;;;15.60;99.90;;;;;;5035379;28;20418;-29
2022/07/10 04:34:17;;;;;;;1.38;1.23;;;15.60;99.90;;;;;;5030670;28;20128;-31
2022/07/10 04:36:43;;;;;;;6.32;1.40;;;15.60;99.90;;;;;;5035192;28;20071;-32
2022/07/10 04:39:09;;;;;;;4.90;1.60;;;15.70;99.90;;;;;;5017324;28;20405;-37
2022/07/10 04:41:34;;;;;;;6.68;1.42;;;15.80;99.90;;;;;;5037241;28;20057;-28
2022/07/10 04:44:00;;;;;;;10.50;1.17;;;15.80;99.90;;;;;;5033802;28;20477;-31
2022/07/10 04:46:26;;;;;;;5.22;0.93;;;15.90;99.90;;;;;;5015876;28;20083;-29
2022/07/10 04:48:51;;;;;;;5.07;0.73;;;15.90;99.90;;;;;;5033024;28;20077;-34
2022/07/10 04:51:17;;;;;;;8.27;0.90;;;15.90;99.90;;;;;;5033059;28;20022;-30
2022/07/10 04:53:43;;;;;;;6.22;1.45;;;16.00;99.90;;;;;;5034398;28;20029;-37
2022/07/10 04:56:09;;;;;;;3.72;1.15;;;16.00;99.90;;;;;;5034193;28;20036;-31
2022/07/10 04:58:35;;;;;;;8.57;1.52;;;16.00;99.90;;;;;;5034309;28;20486;-38
2022/07/10 05:01:01;;;;;;;5.10;0.77;;;16.10;99.90;;;;;;5015739;28;20034;-38
2022/07/10 05:03:28;;;;;;;3.80;0.68;;;16.10;99.90;;;;;;5031958;28;20469;-38
2022/07/10 05:05:53;;;;;;;4.75;1.05;;;16.00;99.90;;;;;;5033797;28;20025;-38
2022/07/10 05:08:19;;;;;;;2.53;0.70;;;16.00;99.90;;;;;;4998844;28;20407;-38
2022/07/10 05:10:44;;;;;;;3.65;1.00;;;16.10;99.90;;;;;;5034226;28;20029;-60
2022/07/10 05:13:11;;;;;;;10.20;1.10;;;16.10;99.90;;;;;;5034495;28;20037;-39
2022/07/10 05:15:40;;;;;;;5.85;1.30;;;16.10;99.90;;;;;;5033755;28;20097;-39
2022/07/10 05:18:06;;;;;;;4.05;0.85;;;16.10;99.90;;;;;;5033627;28;20049;-39
2022/07/10 05:20:33;;;;;;;4.95;0.90;;;16.10;99.90;;;;;;5031579;28;20056;-40
2022/07/10 05:22:58;;;;;;;13.37;0.77;;;16.10;99.90;;;;;;5016295;28;20040;-38
2022/07/10 05:25:26;;;;;;;4.57;0.80;;;16.10;99.90;;;;;;5015742;28;20783;-32
2022/07/10 05:27:51;;;;;;;3.85;1.17;;;16.10;99.90;;;;;;5033107;28;20048;-33
2022/07/10 05:30:17;;;;;;;2.63;0.98;;;16.10;99.90;;;;;;5034442;28;20053;-30
2022/07/10 05:32:44;;;;;;;12.80;1.00;;;16.20;99.90;;;;;;5032379;28;20079;-33
2022/07/10 05:35:11;;;;;;;4.03;0.90;;;16.20;99.90;;;;;;5036215;28;20025;-28
2022/07/10 05:37:37;;;;;;;3.30;0.70;;;16.20;99.90;;;;;;5033368;28;20517;-35
2022/07/10 05:40:02;;;;;;;2.97;0.98;;;16.20;99.90;;;;;;5028153;28;20109;-29
2022/07/10 05:42:28;;;;;;;5.88;1.38;;;16.30;99.90;;;;;;5015612;28;20555;-30
2022/07/10 05:44:54;;;;;;;5.55;0.95;;;16.30;99.90;;;;;;5032315;28;20021;-30
2022/07/10 05:47:19;;;;;;;6.32;1.27;;;16.30;99.90;;;;;;5032653;28;20421;-32
2022/07/10 05:49:45;;;;;;;6.45;1.10;;;16.20;99.90;;;;;;5030330;28;20033;-32
2022/07/10 05:52:10;;;;;;;6.28;0.82;;;16.20;99.90;;;;;;5031049;28;20465;-32
2022/07/10 05:54:36;;;;;;;17.80;1.42;;;16.20;99.90;;;;;;5014290;28;20029;-29
2022/07/10 05:57:02;;;;;;;3.45;0.90;;;16.20;99.90;;;;;;5033157;28;20025;-36
2022/07/10 05:59:27;;;;;;;3.60;1.00;;;16.30;99.90;;;;;;5032841;28;20025;-34
2022/07/10 06:01:53;;;;;;;5.93;0.77;;;16.30;99.90;;;;;;5032924;28;20421;-30
2022/07/10 06:04:18;;;;;;;10.35;1.15;;;16.30;99.90;;;;;;5032197;28;20371;-30
2022/07/10 06:06:44;;;;;;;2.65;1.02;;;16.30;99.90;;;;;;5029868;28;20021;-29
2022/07/10 06:09:09;;;;;;;5.22;1.38;;;16.30;99.90;;;;;;5030855;28;20025;-43
2022/07/10 06:11:35;;;;;;;6.05;0.90;;;16.40;99.90;;;;;;5033332;28;20477;-31
2022/07/10 06:14:01;;;;;;;5.10;1.08;;;16.30;99.90;;;;;;5031672;28;20026;-28
2022/07/10 06:16:26;;;;;;;3.13;0.88;;;16.40;99.90;;;;;;5033651;28;20503;-31
2022/07/10 06:18:52;;;;;;;8.30;1.23;;;16.40;99.90;;;;;;5032705;28;20092;-32
2022/07/10 06:21:21;;;;;;;4.28;0.88;;;16.40;99.90;;;;;;5032411;28;20045;-46
2022/07/10 06:23:47;;;;;;;2.05;0.90;;;16.50;99.90;;;;;;5033342;28;20425;-39
2022/07/10 06:26:12;;;;;;;5.13;0.90;;;16.50;99.90;;;;;;5030022;28;20075;-35
2022/07/10 06:28:39;;;;;;;4.25;0.77;;;16.60;99.90;;;;;;5033056;28;20079;-38
2022/07/10 06:31:05;;;;;;;4.72;1.08;;;16.60;99.90;;;;;;5029559;28;20071;-38
2022/07/10 06:33:32;;;;;;;7.88;1.42;;;16.70;99.90;;;;;;5032603;28;20033;-38
2022/07/10 06:35:57;;;;;;;5.63;1.10;;;16.60;99.90;;;;;;5009307;28;20072;-38
2022/07/10 06:38:23;;;;;;;8.43;1.00;;;16.60;99.90;;;;;;5027357;28;20076;-36
2022/07/10 06:40:50;;;;;;;4.28;1.23;;;16.60;99.90;;;;;;5029981;28;20025;-31
2022/07/10 06:43:16;;;;;;;2.15;0.80;;;16.50;99.90;;;;;;5030982;28;20474;-31
2022/07/10 06:45:41;;;;;;;3.65;0.88;;;16.50;99.90;;;;;;5032218;28;20035;-32
2022/07/10 06:48:08;;;;;;;8.00;1.00;;;16.50;99.90;;;;;;5030323;28;20489;-30
2022/07/10 06:50:34;;;;;;;3.75;0.77;;;16.50;99.90;;;;;;5031594;28;20034;-35
2022/07/10 06:53:01;;;;;;;0.68;0.60;;;16.50;99.90;;;;;;5032239;28;20457;-32
2022/07/10 06:55:27;;;;;;;2.93;0.90;;;16.50;99.90;;;;;;5034028;28;20484;-29
2022/07/10 06:57:53;;;;;;;1.73;0.95;;;16.50;99.90;;;;;;5032976;28;20351;-32
2022/07/10 07:00:19;;;;;;;5.90;2.03;;;16.50;99.90;;;;;;5032938;28;20029;-32
2022/07/10 07:02:45;;;;;;;9.52;1.08;;;16.60;99.90;;;;;;5028909;28;20033;-29
2022/07/10 07:05:11;;;;;;;5.47;1.20;;;16.50;99.90;;;;;;5028836;28;20563;-30
2022/07/10 07:07:37;;;;;;;2.53;1.30;;;16.50;99.90;;;;;;5030732;28;20068;-30
2022/07/10 07:10:04;;;;;;;5.32;0.85;;;16.50;99.90;;;;;;5030548;28;20485;-41
2022/07/10 07:12:29;;;;;;;1.90;0.67;;;16.50;99.90;;;;;;5028539;28;20076;-33
2022/07/10 07:14:55;;;;;;;7.82;1.20;;;16.60;99.90;;;;;;5030130;28;20448;-29
2022/07/10 07:17:22;;;;;;;1.77;0.80;;;16.60;99.90;;;;;;5029599;28;20492;-32
2022/07/10 07:25:21;;;;;;;7.40;1.10;;;16.80;99.90;;;;;;5028273;28;20413;-47
2022/07/10 07:27:47;;;;;;;5.75;1.00;;;16.80;99.90;;;;;;5028952;28;20026;-41
2022/07/10 07:30:15;;;;;;;3.75;1.15;;;16.90;99.90;;;;;;5030949;28;20022;-37
2022/07/10 07:32:41;;;;;;;4.53;1.00;;;16.90;99.90;;;;;;5031057;28;20037;-38
2022/07/10 07:35:08;;;;;;;3.20;1.08;;;17.00;99.90;;;;;;5028507;28;20074;-38
2022/07/10 07:37:38;;;;;;;4.75;0.80;;;17.00;99.90;;;;;;5029508;28;20025;-39
2022/07/10 07:40:13;;;;;;;6.30;1.20;;;16.90;99.90;;;;;;5030222;28;20540;-37
2022/07/10 07:42:40;;;;;;;4.30;1.00;;;16.80;99.90;;;;;;5030897;28;20044;-39
2022/07/10 07:45:07;;;;;;;1.88;1.05;;;16.80;99.90;;;;;;5031251;28;20370;-38
2022/07/10 07:47:50;;;;;;;6.75;1.15;;;16.90;99.90;;;;;;5030647;28;20780;-42
2022/07/10 07:50:17;;;;;;;3.83;1.00;;;16.90;99.90;;;;;;5025496;28;20093;-37
2022/07/10 07:52:43;;;;;;;10.55;1.13;;;16.90;99.90;;;;;;5033750;28;20101;-37
2022/07/10 07:55:10;;;;;;;3.53;1.00;;;16.90;99.90;;;;;;5032028;28;20565;-52
2022/07/10 07:57:36;;;;;;;4.47;1.08;;;17.00;99.90;;;;;;5032056;28;20024;-37
2022/07/10 08:00:04;;;;;;;6.10;1.75;;;17.00;99.90;;;;;;5028897;28;20511;-37
2022/07/10 08:02:30;;;;;;;5.32;1.30;;;17.10;99.90;;;;;;5029019;28;20075;-38
2022/07/10 08:04:55;;;;;;;5.03;1.17;;;17.10;99.90;;;;;;5032590;28;20029;-38
2022/07/10 08:07:21;;;;;;;2.10;1.33;;;17.10;99.90;;;;;;5034732;28;20096;-39
2022/07/10 08:09:48;;;;;;;4.22;1.42;;;17.20;99.90;;;;;;5032978;28;20025;-39
2022/07/10 08:12:14;;;;;;;4.32;1.27;;;17.20;99.90;;;;;;5033550;28;20033;-36
2022/07/10 08:14:40;;;;;;;2.17;1.23;;;17.10;99.90;;;;;;5034183;28;20033;-37
2022/07/10 08:17:05;;;;;;;1.20;1.08;;;17.20;99.90;;;;;;5034964;28;20029;-39
2022/07/10 08:19:31;;;;;;;3.08;1.40;;;17.20;99.90;;;;;;5035515;28;20037;-61
2022/07/10 08:21:56;;;;;;;2.08;1.63;;;17.30;99.90;;;;;;5035511;28;20358;-35
2022/07/10 08:24:22;;;;;;;3.42;0.98;;;17.40;99.90;;;;;;5033736;28;20098;-38
2022/07/10 08:26:47;;;;;;;3.20;1.02;;;17.50;99.90;;;;;;5032619;28;20031;-36
2022/07/10 08:29:13;;;;;;;2.65;1.23;;;17.60;99.90;;;;;;5035315;28;20056;-39
2022/07/10 08:31:39;;;;;;;2.88;0.88;;;17.80;99.90;;;;;;5034155;28;20029;-37
2022/07/10 08:34:05;;;;;;;4.05;1.25;;;17.80;99.90;;;;;;5034365;28;20039;-37
2022/07/10 08:36:31;;;;;;;1.52;0.80;;;18.00;99.90;;;;;;5033610;28;20037;-31
2022/07/10 08:38:58;;;;;;;5.07;1.23;;;18.00;99.90;;;;;;5035223;28;20075;-38
2022/07/10 08:41:26;;;;;;;1.60;1.40;;;18.10;99.90;;;;;;5031374;28;20544;-37
2022/07/10 08:43:52;;;;;;;6.22;1.17;;;18.30;99.90;;;;;;5034411;28;20121;-38
2022/07/10 08:46:18;;;;;;;3.55;1.63;;;18.30;99.90;;;;;;5032721;28;20128;-38
2022/07/10 08:48:54;;;;;;;4.90;1.63;;;18.30;99.90;;;;;;5017226;28;20020;-37
2022/07/10 08:51:30;;;;;;;3.42;1.10;;;18.40;99.90;;;;;;5035077;28;20465;-37
2022/07/10 08:53:57;;;;;;;5.95;1.73;;;18.40;99.90;;;;;;5033874;28;20022;-37
2022/07/10 08:56:22;;;;;;;2.20;1.20;;;18.60;99.90;;;;;;5034760;28;20507;-36
2022/07/10 08:58:51;;;;;;;2.72;1.35;;;18.50;99.90;;;;;;5010338;28;20057;-32
2022/07/10 09:01:22;;;;;;;3.45;1.15;;;18.50;99.90;;;;;;5027468;28;20017;-30
2022/07/10 09:03:49;;;;;;;4.75;1.17;;;18.50;99.90;;;;;;5030741;28;20060;-32
2022/07/10 09:06:14;;;;;;;3.25;1.17;;;18.60;99.90;;;;;;5034701;28;20013;-31
2022/07/10 09:08:58;;;;;;;5.35;1.35;;;18.60;99.90;;;;;;5030787;28;20361;-30
2022/07/10 09:11:25;;;;;;;2.55;1.40;;;18.60;99.90;;;;;;5043088;28;20025;-36
2022/07/10 09:13:52;;;;;;;1.58;0.95;;;18.50;99.90;;;;;;5006766;28;20106;-31
2022/07/10 09:16:32;;;;;;;3.00;1.48;;;18.40;99.90;;;;;;5029288;28;20474;-30
2022/07/10 09:19:18;;;;;;;4.55;1.75;;;18.50;99.90;;;;;;5030940;28;20034;-36
2022/07/10 09:21:45;;;;;;;5.78;1.10;;;18.70;99.90;;;;;;5021494;28;20049;-29
2022/07/10 09:24:11;;;;;;;2.17;0.98;;;19.00;99.90;;;;;;5030878;28;20869;-35
2022/07/10 09:26:38;;;;;;;4.65;0.93;;;19.10;99.90;;;;;;5033424;28;20032;-29
2022/07/10 09:29:22;;;;;;;2.55;0.70;;;19.30;99.90;;;;;;5033526;28;20100;-31
2022/07/10 09:31:52;;;;;;;0.80;0.77;;;19.40;99.90;;;;;;5033470;28;20075;-33
2022/07/10 09:34:35;;;;;;;2.78;1.10;;;19.40;99.90;;;;;;5015086;28;20033;-33
2022/07/10 09:37:27;;;;;;;5.70;1.55;;;19.30;99.90;;;;;;5031941;28;20033;-32
2022/07/10 09:40:05;;;;;;;3.58;0.70;;;19.20;99.90;;;;;;5029199;28;20036;-34
2022/07/10 09:42:38;;;;;;;2.10;1.08;;;19.10;99.90;;;;;;5032949;28;21192;-29
2022/07/10 09:45:10;;;;;;;3.17;1.40;;;19.20;99.90;;;;;;5031785;28;20075;-29
2022/07/10 09:47:36;;;;;;;3.78;0.80;;;19.20;99.90;;;;;;5033685;28;20449;-33
2022/07/10 09:50:03;;;;;;;4.55;1.52;;;19.10;99.90;;;;;;5033827;28;20028;-31
2022/07/10 09:52:29;;;;;;;2.90;1.20;;;19.20;99.90;;;;;;5033959;28;20163;-32
2022/07/10 09:54:56;;;;;;;3.65;1.02;;;19.30;99.90;;;;;;5033507;28;20030;-32
2022/07/10 09:57:25;;;;;;;5.90;0.98;;;19.20;99.90;;;;;;5033638;28;20040;-32
2022/07/10 09:59:51;;;;;;;4.57;1.02;;;19.20;99.90;;;;;;5033248;28;20064;-28
2022/07/10 10:02:19;;;;;;;2.60;0.70;;;19.20;99.90;;;;;;5033499;28;20397;-35
2022/07/10 10:04:46;;;;;;;2.47;0.85;;;19.10;99.90;;;;;;5033388;28;20033;-28
2022/07/10 10:07:13;;;;;;;2.65;0.73;;;19.10;99.90;;;;;;5033426;28;20508;-28
2022/07/10 10:10:01;;;;;;;3.13;1.00;;;19.00;99.90;;;;;;5033719;28;20018;-31
2022/07/10 10:12:58;;;;;;;2.08;0.70;;;19.20;99.90;;;;;;5033785;28;20481;-29
2022/07/10 10:15:24;;;;;;;;;;;19.40;99.90;;;;;;5029069;28;20053;-30
2022/07/10 10:17:51;;;;;;;1.17;0.98;;;19.30;99.90;;;;;;5033635;28;20365;-28
2022/07/10 10:23:03;;;;;;;2.10;0.85;;;19.40;99.90;;;;;;5033474;28;20056;-33
2022/07/10 10:25:32;;;;;;;2.97;0.68;;;19.30;99.90;;;;;;5033369;28;20029;-30
2022/07/10 10:28:01;;;;;;;1.45;0.70;;;19.20;99.90;;;;;;5033237;28;20035;-34
2022/07/10 10:30:27;;;;;;;3.63;0.93;;;19.20;99.90;;;;;;5033480;28;20485;-29
2022/07/10 10:32:53;;;;;;;2.67;1.08;;;19.20;99.90;;;;;;5033494;28;20082;-35
2022/07/10 10:35:46;;;;;;;2.83;0.80;;;19.10;99.90;;;;;;5033158;28;20526;-29
2022/07/10 10:38:13;;;;;;;2.45;0.73;;;19.20;99.90;;;;;;5033059;28;20057;-33
2022/07/10 10:40:38;;;;;;;5.30;0.90;;;19.30;99.90;;;;;;5033116;28;20519;-32
2022/07/10 10:43:22;;;;;;;6.63;0.93;;;19.40;99.90;;;;;;5033125;28;20029;-29
2022/07/10 10:45:48;;;;;;;4.65;0.63;;;19.50;99.90;;;;;;5033064;28;20080;-35
2022/07/10 10:48:17;;;;;;;1.50;0.55;;;19.60;99.90;;;;;;5032826;28;20048;-31
2022/07/10 10:50:47;;;;;;;6.85;1.15;;;19.70;99.90;;;;;;5033342;28;20496;-32
2022/07/10 10:53:18;;;;;;;1.33;0.60;;;19.80;99.90;;;;;;5033052;28;20025;-36
2022/07/10 10:56:02;;;;;;;1.20;0.63;;;20.00;99.90;;;;;;5033045;28;20083;-32
2022/07/10 10:58:42;;;;;;;2.35;0.80;;;19.90;99.90;;;;;;5033073;28;20044;-36
2022/07/10 11:01:20;;;;;;;2.28;0.70;;;19.90;99.90;;;;;;5032981;28;20033;-32
2022/07/10 11:04:04;;;;;;;3.97;0.60;;;19.90;99.90;;;;;;5032877;28;20116;-38
2022/07/10 11:06:40;;;;;;;5.80;1.52;;;19.90;99.90;;;;;;5033004;28;20536;-37
2022/07/10 11:09:31;;;;;;;7.75;0.73;;;19.90;99.90;;;;;;5033203;28;20056;-38
2022/07/10 11:12:08;;;;;;;2.88;0.93;;;20.10;99.90;;;;;;5032778;28;20029;-39
2022/07/10 11:14:45;;;;;;;4.20;0.68;;;20.20;99.90;;;;;;5015690;28;20051;-43
2022/07/10 11:17:10;;;;;;;0.60;0.60;;;20.30;99.90;;;;;;5032951;28;20083;-41
2022/07/10 11:19:36;;;;;;;0.88;0.60;;;20.30;99.90;;;;;;5032855;28;20037;-39
2022/07/10 11:22:43;;;;;;;1.58;0.70;;;20.30;99.90;;;;;;5032877;28;20080;-39
2022/07/10 11:25:19;;;;;;;1.35;1.00;;;20.30;99.90;;;;;;5033258;28;20520;-39
2022/07/10 11:28:08;;;;;;;8.93;0.75;;;20.20;99.90;;;;;;5036700;28;20032;-38
2022/07/10 11:30:44;;;;;;;2.13;0.80;;;20.10;99.90;;;;;;5036708;28;20025;-47
2022/07/10 11:33:09;;;;;;;4.15;1.20;;;20.10;99.90;;;;;;5036434;28;20060;-35
2022/07/10 11:35:35;;;;;;;1.75;0.80;;;20.20;99.90;;;;;;5036368;28;20493;-30
2022/07/10 11:38:01;;;;;;;5.03;0.80;;;20.30;99.90;;;;;;5036287;28;20041;-31
2022/07/10 11:40:27;;;;;;;3.50;0.75;;;20.20;99.90;;;;;;5036501;28;20485;-33
2022/07/10 11:42:57;;;;;;;2.47;0.68;;;20.30;99.90;;;;;;5036294;28;20503;-37
2022/07/10 11:45:36;;;;;;;0.52;0.47;;;20.20;99.90;;;;;;5036367;28;20029;-31
2022/07/10 11:48:02;;;;;;;0.68;0.43;;;20.20;99.90;;;;;;5035884;28;20046;-33
2022/07/10 11:50:34;;;;;;;0.77;0.50;;;20.20;99.90;;;;;;5036211;28;20157;-35
2022/07/10 11:52:59;;;;;;;1.40;0.70;;;20.40;99.90;;;;;;5036106;28;20101;-34
2022/07/10 11:55:28;;;;;;;4.63;0.93;;;20.50;99.90;;;;;;5036066;28;20053;-33
2022/07/10 11:57:54;;;;;;;1.92;0.57;;;20.80;99.90;;;;;;5036170;28;20131;-32
2022/07/10 12:00:30;;;;;;;1.13;0.52;;;20.80;99.90;;;;;;5035966;28;20033;-37
2022/07/10 12:03:14;;;;;;;1.20;0.65;;;21.00;99.90;;;;;;5035952;28;20545;-33
2022/07/10 12:05:41;;;;;;;5.55;0.70;;;21.20;99.90;;;;;;5035786;28;20029;-34
2022/07/10 12:08:07;;;;;;;0.73;0.52;;;21.40;99.90;;;;;;5035812;28;20021;-34
2022/07/10 12:10:34;;;;;;;1.52;0.65;;;21.50;99.90;;;;;;5035664;28;20045;-34
2022/07/10 12:13:05;;;;;;;8.15;0.50;;;21.50;99.90;;;;;;5035963;28;20575;-32
2022/07/10 12:15:42;;;;;;;1.80;0.80;;;21.40;99.90;;;;;;5035951;28;20026;-34
2022/07/10 12:18:14;;;;;;;3.70;0.80;;;21.40;99.90;;;;;;5017906;28;20120;-51
2022/07/10 12:20:45;;;;;;;0.80;0.70;;;21.50;99.90;;;;;;5035445;28;20485;-38
2022/07/10 12:23:11;;;;;;;2.15;0.55;;;21.60;99.90;;;;;;5035822;28;20036;-38
2022/07/10 12:25:37;;;;;;;4.00;0.87;;;21.50;99.90;;;;;;5035330;28;20021;-38
2022/07/10 12:28:03;;;;;;;2.63;0.73;;;21.70;99.90;;;;;;5035506;28;20274;-38
2022/07/10 12:30:44;;;;;;;1.58;0.80;;;21.70;99.90;;;;;;5035351;28;20495;-39
2022/07/10 12:33:20;;;;;;;1.35;0.63;;;21.60;99.90;;;;;;5035293;28;20033;-38
2022/07/10 12:35:48;;;;;;;0.60;0.60;;;21.40;99.90;;;;;;5035590;28;20485;-38
2022/07/10 12:38:17;;;;;;;;;;;21.30;99.90;;;;;;5034856;28;20517;-39
2022/07/10 12:40:43;;;;;;;1.38;0.70;;;21.30;99.90;;;;;;5035273;28;20411;-38
2022/07/10 12:43:11;;;;;;;3.75;0.85;;;21.40;99.90;;;;;;5035145;28;20061;-39
2022/07/10 12:45:37;;;;;;;0.68;0.63;;;21.40;99.90;;;;;;5035308;28;20500;-35
2022/07/10 12:48:05;;;;;;;2.20;0.50;;;21.40;99.90;;;;;;5034836;28;20124;-37
2022/07/10 12:50:32;;;;;;;0.75;0.75;;;21.30;99.90;;;;;;5035209;28;20469;-31
2022/07/10 12:53:08;;;;;;;5.45;1.00;;;21.20;99.90;;;;;;5035064;28;20021;-36
2022/07/10 12:55:38;;;;;;;2.50;0.60;;;21.40;99.90;;;;;;5035250;28;20033;-37
2022/07/10 12:58:09;;;;;;;2.20;0.70;;;21.60;99.90;;;;;;5017000;28;20036;-43
2022/07/10 13:00:48;;;;;;;0.75;0.55;;;21.80;99.90;;;;;;5034933;28;20103;-34
2022/07/10 13:03:19;;;;;;;1.52;0.68;;;22.00;99.90;;;;;;5035016;28;20065;-33
2022/07/10 13:05:45;;;;;;;1.65;0.68;;;22.00;99.90;;;;;;5034911;28;20362;-49